sensor_id;sensor_type;location;lat;lon;timestamp;temperature;humidity
20041;DHT22;10181;48.072;9.884;2024-02-26T00:01:51;3.40;99.90
20041;DHT22;10181;48.072;9.884;2024-02-26T00:04:17;3.30;99.90
20041;DHT22;10181;48.072;9.884;2024-02-26T00:06:43;3.30;99.90
20041;DHT22;10181;48.072;9.884;2024-02-26T00:09:09;3.40;99.90
20041;DHT22;10181;48.072;9.884;2024-02-26T00:11:36;3.40;99.90
20041;DHT22;10181;48.072;9.884;2024-02-26T00:14:02;3.40;99.90
20041;DHT22;10181;48.072;9.884;2024-02-26T00:16:28;3.40;99.90
20041;DHT22;10181;48.072;9.884;2024-02-26T00:18:53;3.40;99.90
20041;DHT22;10181;48.072;9.884;2024-02-26T00:21:19;3.30;99.90
20041;DHT22;10181;48.072;9.884;2024-02-26T00:23:45;3.30;99.90
20041;DHT22;10181;48.072;9.884;2024-02-26T00:26:10;3.30;99.90
20041;DHT22;10181;48.072;9.884;2024-02-26T00:28:36;3.30;99.90
20041;DHT22;10181;48.072;9.884;2024-02-26T00:31:02;3.20;99.90
20041;DHT22;10181;48.072;9.884;2024-02-26T00:33:28;3.20;99.90
20041;DHT22;10181;48.072;9.884;2024-02-26T00:35:53;3.10;99.90
20041;DHT22;10181;48.072;9.884;2024-02-26T00:38:19;3.20;99.90
20041;DHT22;10181;48.072;9.884;2024-02-26T00:40:45;3.20;99.90
20041;DHT22;10181;48.072;9.884;2024-02-26T00:43:11;3.30;99.90
20041;DHT22;10181;48.072;9.884;2024-02-26T00:45:37;3.40;99.90
20041;DHT22;10181;48.072;9.884;2024-02-26T00:48:02;3.50;99.90
20041;DHT22;10181;48.072;9.884;2024-02-26T00:50:36;3.50;99.90
20041;DHT22;10181;48.072;9.884;2024-02-26T00:53:02;3.60;99.90
20041;DHT22;10181;48.072;9.884;2024-02-26T00:55:28;3.60;99.90
20041;DHT22;10181;48.072;9.884;2024-02-26T00:57:53;3.60;99.90
20041;DHT22;10181;48.072;9.884;2024-02-26T01:00:19;3.70;99.90
20041;DHT22;10181;48.072;9.884;2024-02-26T01:02:45;3.70;99.90
20041;DHT22;10181;48.072;9.884;2024-02-26T01:05:14;3.70;99.90
20041;DHT22;10181;48.072;9.884;2024-02-26T01:07:40;3.70;99.90
20041;DHT22;10181;48.072;9.884;2024-02-26T01:10:06;3.70;99.90
20041;DHT22;10181;48.072;9.884;2024-02-26T01:12:33;3.70;99.90
20041;DHT22;10181;48.072;9.884;2024-02-26T01:14:59;3.70;99.90
20041;DHT22;10181;48.072;9.884;2024-02-26T01:17:24;3.70;99.90
20041;DHT22;10181;48.072;9.884;2024-02-26T01:19:50;3.60;99.90
20041;DHT22;10181;48.072;9.884;2024-02-26T01:22:16;3.60;99.90
20041;DHT22;10181;48.072;9.884;2024-02-26T01:24:41;3.60;99.90
20041;DHT22;10181;48.072;9.884;2024-02-26T01:27:07;3.60;99.90
20041;DHT22;10181;48.072;9.884;2024-02-26T01:29:34;3.60;99.90
20041;DHT22;10181;48.072;9.884;2024-02-26T01:32:00;3.60;99.90
20041;DHT22;10181;48.072;9.884;2024-02-26T01:34:25;3.50;99.90
20041;DHT22;10181;48.072;9.884;2024-02-26T01:36:51;3.50;99.90
20041;DHT22;10181;48.072;9.884;2024-02-26T01:39:16;3.50;99.90
20041;DHT22;10181;48.072;9.884;2024-02-26T01:41:42;3.50;99.90
20041;DHT22;10181;48.072;9.884;2024-02-26T01:44:08;3.40;99.90
20041;DHT22;10181;48.072;9.884;2024-02-26T01:46:34;3.40;99.90
20041;DHT22;10181;48.072;9.884;2024-02-26T01:49:01;3.40;99.90
20041;DHT22;10181;48.072;9.884;2024-02-26T01:51:28;3.40;99.90
20041;DHT22;10181;48.072;9.884;2024-02-26T01:53:54;3.30;99.90
20041;DHT22;10181;48.072;9.884;2024-02-26T01:56:20;3.30;99.90
20041;DHT22;10181;48.072;9.884;2024-02-26T01:58:47;3.30;99.90
20041;DHT22;10181;48.072;9.884;2024-02-26T02:01:15;3.30;99.90
20041;DHT22;10181;48.072;9.884;2024-02-26T02:03:42;3.30;99.90
20041;DHT22;10181;48.072;9.884;2024-02-26T02:06:08;3.30;99.90
20041;DHT22;10181;48.072;9.884;2024-02-26T02:08:34;3.30;99.90
20041;DHT22;10181;48.072;9.884;2024-02-26T02:11:00;3.30;99.90
20041;DHT22;10181;48.072;9.884;2024-02-26T02:13:26;3.30;99.90
20041;DHT22;10181;48.072;9.884;2024-02-26T02:15:52;3.30;99.90
20041;DHT22;10181;48.072;9.884;2024-02-26T02:18:19;3.40;99.90
20041;DHT22;10181;48.072;9.884;2024-02-26T02:20:44;3.40;99.90
20041;DHT22;10181;48.072;9.884;2024-02-26T02:23:10;3.40;99.90
20041;DHT22;10181;48.072;9.884;2024-02-26T02:25:36;3.40;99.90
20041;DHT22;10181;48.072;9.884;2024-02-26T02:28:01;3.40;99.90
20041;DHT22;10181;48.072;9.884;2024-02-26T02:30:29;3.30;99.90
20041;DHT22;10181;48.072;9.884;2024-02-26T02:32:55;3.30;99.90
20041;DHT22;10181;48.072;9.884;2024-02-26T02:35:22;3.30;99.90
20041;DHT22;10181;48.072;9.884;2024-02-26T02:37:48;3.30;99.90
20041;DHT22;10181;48.072;9.884;2024-02-26T02:40:13;3.30;99.90
20041;DHT22;10181;48.072;9.884;2024-02-26T02:42:39;3.30;99.90
20041;DHT22;10181;48.072;9.884;2024-02-26T02:45:05;3.30;99.90
20041;DHT22;10181;48.072;9.884;2024-02-26T02:47:31;3.30;99.90
20041;DHT22;10181;48.072;9.884;2024-02-26T02:49:56;3.30;99.90
20041;DHT22;10181;48.072;9.884;2024-02-26T02:52:22;3.30;99.90
20041;DHT22;10181;48.072;9.884;2024-02-26T02:54:47;3.30;99.90
20041;DHT22;10181;48.072;9.884;2024-02-26T02:57:13;3.30;99.90
20041;DHT22;10181;48.072;9.884;2024-02-26T02:59:39;3.30;99.90
20041;DHT22;10181;48.072;9.884;2024-02-26T03:02:05;3.20;99.90
20041;DHT22;10181;48.072;9.884;2024-02-26T03:04:32;3.30;99.90
20041;DHT22;10181;48.072;9.884;2024-02-26T03:06:57;3.30;99.90
20041;DHT22;10181;48.072;9.884;2024-02-26T03:09:23;3.30;99.90
20041;DHT22;10181;48.072;9.884;2024-02-26T03:11:49;3.30;99.90
20041;DHT22;10181;48.072;9.884;2024-02-26T03:14:15;3.20;99.90
20041;DHT22;10181;48.072;9.884;2024-02-26T03:16:41;3.20;99.90
20041;DHT22;10181;48.072;9.884;2024-02-26T03:19:07;3.20;99.90
20041;DHT22;10181;48.072;9.884;2024-02-26T03:21:32;3.30;99.90
20041;DHT22;10181;48.072;9.884;2024-02-26T03:23:58;3.20;99.90
20041;DHT22;10181;48.072;9.884;2024-02-26T03:26:23;3.30;99.90
20041;DHT22;10181;48.072;9.884;2024-02-26T03:28:49;3.30;99.90
20041;DHT22;10181;48.072;9.884;2024-02-26T03:31:15;3.30;99.90
20041;DHT22;10181;48.072;9.884;2024-02-26T03:33:40;3.30;99.90
20041;DHT22;10181;48.072;9.884;2024-02-26T03:36:06;3.30;99.90
20041;DHT22;10181;48.072;9.884;2024-02-26T03:38:32;3.30;99.90
20041;DHT22;10181;48.072;9.884;2024-02-26T03:40:58;3.30;99.90
20041;DHT22;10181;48.072;9.884;2024-02-26T03:43:24;3.40;99.90
20041;DHT22;10181;48.072;9.884;2024-02-26T03:45:52;3.30;99.90
20041;DHT22;10181;48.072;9.884;2024-02-26T03:48:18;3.30;99.90
20041;DHT22;10181;48.072;9.884;2024-02-26T03:50:43;3.30;99.90
20041;DHT22;10181;48.072;9.884;2024-02-26T03:53:09;3.30;99.90
20041;DHT22;10181;48.072;9.884;2024-02-26T03:55:38;3.30;99.90
20041;DHT22;10181;48.072;9.884;2024-02-26T03:58:03;3.30;99.90
20041;DHT22;10181;48.072;9.884;2024-02-26T04:00:29;3.30;99.90
20041;DHT22;10181;48.072;9.884;2024-02-26T04:02:55;3.30;99.90
20041;DHT22;10181;48.072;9.884;2024-02-26T04:05:21;3.30;99.90
20041;DHT22;10181;48.072;9.884;2024-02-26T04:07:46;3.30;99.90
20041;DHT22;10181;48.072;9.884;2024-02-26T04:10:12;3.30;99.90
20041;DHT22;10181;48.072;9.884;2024-02-26T04:12:39;3.40;99.90
20041;DHT22;10181;48.072;9.884;2024-02-26T04:15:07;3.40;99.90
20041;DHT22;10181;48.072;9.884;2024-02-26T04:17:33;3.40;99.90
20041;DHT22;10181;48.072;9.884;2024-02-26T04:19:59;3.40;99.90
20041;DHT22;10181;48.072;9.884;2024-02-26T04:22:24;3.50;99.90
20041;DHT22;10181;48.072;9.884;2024-02-26T04:24:50;3.50;99.90
20041;DHT22;10181;48.072;9.884;2024-02-26T04:27:16;3.40;99.90
20041;DHT22;10181;48.072;9.884;2024-02-26T04:29:41;3.40;99.90
20041;DHT22;10181;48.072;9.884;2024-02-26T04:32:07;3.40;99.90
20041;DHT22;10181;48.072;9.884;2024-02-26T04:34:33;3.40;99.90
20041;DHT22;10181;48.072;9.884;2024-02-26T04:36:58;3.40;99.90
20041;DHT22;10181;48.072;9.884;2024-02-26T04:39:24;3.40;99.90
20041;DHT22;10181;48.072;9.884;2024-02-26T04:41:49;3.30;99.90
20041;DHT22;10181;48.072;9.884;2024-02-26T04:44:15;3.30;99.90
20041;DHT22;10181;48.072;9.884;2024-02-26T04:46:41;3.40;99.90
20041;DHT22;10181;48.072;9.884;2024-02-26T04:49:06;3.30;99.90
20041;DHT22;10181;48.072;9.884;2024-02-26T04:51:32;3.40;99.90
20041;DHT22;10181;48.072;9.884;2024-02-26T04:53:58;3.50;99.90
20041;DHT22;10181;48.072;9.884;2024-02-26T04:56:23;3.60;99.90
20041;DHT22;10181;48.072;9.884;2024-02-26T04:58:49;3.70;99.90
20041;DHT22;10181;48.072;9.884;2024-02-26T05:01:15;3.70;99.90
20041;DHT22;10181;48.072;9.884;2024-02-26T05:03:42;3.60;99.90
20041;DHT22;10181;48.072;9.884;2024-02-26T05:06:08;3.40;99.90
20041;DHT22;10181;48.072;9.884;2024-02-26T05:08:34;3.40;99.90
20041;DHT22;10181;48.072;9.884;2024-02-26T05:11:02;3.40;99.90
20041;DHT22;10181;48.072;9.884;2024-02-26T05:13:28;3.40;99.90
20041;DHT22;10181;48.072;9.884;2024-02-26T05:15:54;3.40;99.90
20041;DHT22;10181;48.072;9.884;2024-02-26T05:18:20;3.50;99.90
20041;DHT22;10181;48.072;9.884;2024-02-26T05:20:46;3.50;99.90
20041;DHT22;10181;48.072;9.884;2024-02-26T05:23:11;3.50;99.90
20041;DHT22;10181;48.072;9.884;2024-02-26T05:25:37;3.50;99.90
20041;DHT22;10181;48.072;9.884;2024-02-26T05:28:03;3.50;99.90
20041;DHT22;10181;48.072;9.884;2024-02-26T05:30:28;3.50;99.90
20041;DHT22;10181;48.072;9.884;2024-02-26T05:32:54;3.50;99.90
20041;DHT22;10181;48.072;9.884;2024-02-26T05:35:20;3.50;99.90
20041;DHT22;10181;48.072;9.884;2024-02-26T05:37:45;3.50;99.90
20041;DHT22;10181;48.072;9.884;2024-02-26T05:40:11;3.60;99.90
20041;DHT22;10181;48.072;9.884;2024-02-26T05:42:37;3.60;99.90
20041;DHT22;10181;48.072;9.884;2024-02-26T05:45:03;3.60;99.90
20041;DHT22;10181;48.072;9.884;2024-02-26T05:47:33;3.60;99.90
20041;DHT22;10181;48.072;9.884;2024-02-26T05:49:58;3.70;99.90
20041;DHT22;10181;48.072;9.884;2024-02-26T05:52:26;3.80;99.90
20041;DHT22;10181;48.072;9.884;2024-02-26T05:54:52;3.70;99.90
20041;DHT22;10181;48.072;9.884;2024-02-26T05:57:17;3.70;99.90
20041;DHT22;10181;48.072;9.884;2024-02-26T05:59:44;3.70;99.90
20041;DHT22;10181;48.072;9.884;2024-02-26T06:02:09;3.70;99.90
20041;DHT22;10181;48.072;9.884;2024-02-26T06:04:35;3.70;99.90
20041;DHT22;10181;48.072;9.884;2024-02-26T06:07:01;3.70;99.90
20041;DHT22;10181;48.072;9.884;2024-02-26T06:09:26;3.70;99.90
20041;DHT22;10181;48.072;9.884;2024-02-26T06:11:52;3.80;99.90
20041;DHT22;10181;48.072;9.884;2024-02-26T06:14:18;3.80;99.90
20041;DHT22;10181;48.072;9.884;2024-02-26T06:16:44;3.80;99.90
20041;DHT22;10181;48.072;9.884;2024-02-26T06:19:10;3.80;99.90
20041;DHT22;10181;48.072;9.884;2024-02-26T06:21:36;3.90;99.90
20041;DHT22;10181;48.072;9.884;2024-02-26T06:24:01;3.90;99.90
20041;DHT22;10181;48.072;9.884;2024-02-26T06:26:27;3.90;99.90
20041;DHT22;10181;48.072;9.884;2024-02-26T06:28:56;3.90;99.90
20041;DHT22;10181;48.072;9.884;2024-02-26T06:31:22;3.80;99.90
20041;DHT22;10181;48.072;9.884;2024-02-26T06:33:49;3.70;99.90
20041;DHT22;10181;48.072;9.884;2024-02-26T06:36:15;3.60;99.90
20041;DHT22;10181;48.072;9.884;2024-02-26T06:38:41;3.60;99.90
20041;DHT22;10181;48.072;9.884;2024-02-26T06:41:07;3.60;99.90
20041;DHT22;10181;48.072;9.884;2024-02-26T06:43:32;3.60;99.90
20041;DHT22;10181;48.072;9.884;2024-02-26T06:45:58;3.60;99.90
20041;DHT22;10181;48.072;9.884;2024-02-26T06:48:24;3.60;99.90
20041;DHT22;10181;48.072;9.884;2024-02-26T06:50:50;3.60;99.90
20041;DHT22;10181;48.072;9.884;2024-02-26T06:53:16;3.60;99.90
20041;DHT22;10181;48.072;9.884;2024-02-26T06:55:42;3.60;99.90
20041;DHT22;10181;48.072;9.884;2024-02-26T06:58:08;3.60;99.90
20041;DHT22;10181;48.072;9.884;2024-02-26T07:00:35;3.70;99.90
20041;DHT22;10181;48.072;9.884;2024-02-26T07:03:01;3.70;99.90
20041;DHT22;10181;48.072;9.884;2024-02-26T07:05:27;3.80;99.90
20041;DHT22;10181;48.072;9.884;2024-02-26T07:07:53;3.80;99.90
20041;DHT22;10181;48.072;9.884;2024-02-26T07:10:19;3.80;99.90
20041;DHT22;10181;48.072;9.884;2024-02-26T07:12:44;3.90;99.90
20041;DHT22;10181;48.072;9.884;2024-02-26T07:15:10;4.00;99.90
20041;DHT22;10181;48.072;9.884;2024-02-26T07:17:36;4.00;99.90
20041;DHT22;10181;48.072;9.884;2024-02-26T07:20:02;3.90;99.90
20041;DHT22;10181;48.072;9.884;2024-02-26T07:22:31;3.90;99.90
20041;DHT22;10181;48.072;9.884;2024-02-26T07:24:56;3.90;99.90
20041;DHT22;10181;48.072;9.884;2024-02-26T07:27:23;3.90;99.90
20041;DHT22;10181;48.072;9.884;2024-02-26T07:29:49;3.90;99.90
20041;DHT22;10181;48.072;9.884;2024-02-26T07:32:14;3.90;99.90
20041;DHT22;10181;48.072;9.884;2024-02-26T07:34:41;3.90;99.90
20041;DHT22;10181;48.072;9.884;2024-02-26T07:37:13;3.80;99.90
20041;DHT22;10181;48.072;9.884;2024-02-26T07:39:38;3.90;99.90
20041;DHT22;10181;48.072;9.884;2024-02-26T07:42:04;4.00;99.90
20041;DHT22;10181;48.072;9.884;2024-02-26T07:44:30;4.10;99.90
20041;DHT22;10181;48.072;9.884;2024-02-26T07:46:55;4.10;99.90
20041;DHT22;10181;48.072;9.884;2024-02-26T07:49:21;4.20;99.90
20041;DHT22;10181;48.072;9.884;2024-02-26T07:51:47;4.20;99.90
20041;DHT22;10181;48.072;9.884;2024-02-26T07:54:12;4.30;99.90
20041;DHT22;10181;48.072;9.884;2024-02-26T07:56:38;4.30;99.90
20041;DHT22;10181;48.072;9.884;2024-02-26T07:59:04;4.40;99.90
20041;DHT22;10181;48.072;9.884;2024-02-26T08:01:29;4.50;99.90
20041;DHT22;10181;48.072;9.884;2024-02-26T08:03:55;4.50;99.90
20041;DHT22;10181;48.072;9.884;2024-02-26T08:06:21;4.60;99.90
20041;DHT22;10181;48.072;9.884;2024-02-26T08:08:47;4.60;99.90
20041;DHT22;10181;48.072;9.884;2024-02-26T08:11:14;4.70;99.90
20041;DHT22;10181;48.072;9.884;2024-02-26T08:13:41;4.80;99.90
20041;DHT22;10181;48.072;9.884;2024-02-26T08:16:06;4.90;99.90
20041;DHT22;10181;48.072;9.884;2024-02-26T08:18:32;4.90;99.90
20041;DHT22;10181;48.072;9.884;2024-02-26T08:20:58;5.00;99.90
20041;DHT22;10181;48.072;9.884;2024-02-26T08:23:23;5.10;99.90
20041;DHT22;10181;48.072;9.884;2024-02-26T08:25:49;5.10;99.90
20041;DHT22;10181;48.072;9.884;2024-02-26T08:28:14;5.10;99.90
20041;DHT22;10181;48.072;9.884;2024-02-26T08:30:43;5.20;99.90
20041;DHT22;10181;48.072;9.884;2024-02-26T08:33:09;5.30;99.90
20041;DHT22;10181;48.072;9.884;2024-02-26T08:35:35;5.40;99.90
20041;DHT22;10181;48.072;9.884;2024-02-26T08:38:01;5.60;99.90
20041;DHT22;10181;48.072;9.884;2024-02-26T08:40:26;5.90;99.90
20041;DHT22;10181;48.072;9.884;2024-02-26T08:42:52;6.00;99.90
20041;DHT22;10181;48.072;9.884;2024-02-26T08:45:17;6.20;99.90
20041;DHT22;10181;48.072;9.884;2024-02-26T08:47:45;6.40;99.90
20041;DHT22;10181;48.072;9.884;2024-02-26T08:50:11;6.40;99.90
20041;DHT22;10181;48.072;9.884;2024-02-26T08:52:37;6.50;99.90
20041;DHT22;10181;48.072;9.884;2024-02-26T08:55:03;6.60;99.90
20041;DHT22;10181;48.072;9.884;2024-02-26T08:57:31;6.70;99.90
20041;DHT22;10181;48.072;9.884;2024-02-26T08:59:58;6.70;99.90
20041;DHT22;10181;48.072;9.884;2024-02-26T09:02:24;6.60;99.90
20041;DHT22;10181;48.072;9.884;2024-02-26T09:04:49;6.60;99.90
20041;DHT22;10181;48.072;9.884;2024-02-26T09:07:16;6.60;99.90
20041;DHT22;10181;48.072;9.884;2024-02-26T09:09:42;6.70;99.90
20041;DHT22;10181;48.072;9.884;2024-02-26T09:12:08;6.70;99.90
20041;DHT22;10181;48.072;9.884;2024-02-26T09:14:33;6.70;99.90
20041;DHT22;10181;48.072;9.884;2024-02-26T09:16:59;6.50;99.90
20041;DHT22;10181;48.072;9.884;2024-02-26T09:19:25;6.50;99.90
20041;DHT22;10181;48.072;9.884;2024-02-26T09:21:53;6.50;99.90
20041;DHT22;10181;48.072;9.884;2024-02-26T09:24:23;6.40;99.90
20041;DHT22;10181;48.072;9.884;2024-02-26T09:26:48;6.50;99.90
20041;DHT22;10181;48.072;9.884;2024-02-26T09:29:14;6.50;99.90
20041;DHT22;10181;48.072;9.884;2024-02-26T09:31:40;6.50;99.90
20041;DHT22;10181;48.072;9.884;2024-02-26T09:34:07;6.60;99.90
20041;DHT22;10181;48.072;9.884;2024-02-26T09:36:33;6.90;99.90
20041;DHT22;10181;48.072;9.884;2024-02-26T09:38:59;7.20;99.90
20041;DHT22;10181;48.072;9.884;2024-02-26T09:41:30;7.80;99.90
20041;DHT22;10181;48.072;9.884;2024-02-26T09:43:58;7.80;99.90
20041;DHT22;10181;48.072;9.884;2024-02-26T09:46:27;7.60;99.90
20041;DHT22;10181;48.072;9.884;2024-02-26T09:48:53;7.50;99.90
20041;DHT22;10181;48.072;9.884;2024-02-26T09:51:19;7.80;99.90
20041;DHT22;10181;48.072;9.884;2024-02-26T09:53:51;7.80;99.90
20041;DHT22;10181;48.072;9.884;2024-02-26T09:56:17;7.90;99.90
20041;DHT22;10181;48.072;9.884;2024-02-26T09:58:43;8.10;99.90
20041;DHT22;10181;48.072;9.884;2024-02-26T10:01:16;8.00;99.90
20041;DHT22;10181;48.072;9.884;2024-02-26T10:03:42;8.00;99.90
20041;DHT22;10181;48.072;9.884;2024-02-26T10:06:10;8.20;99.90
20041;DHT22;10181;48.072;9.884;2024-02-26T10:08:36;8.30;99.90
20041;DHT22;10181;48.072;9.884;2024-02-26T10:11:07;8.50;99.90
20041;DHT22;10181;48.072;9.884;2024-02-26T10:13:36;8.70;99.90
20041;DHT22;10181;48.072;9.884;2024-02-26T10:16:03;8.80;99.90
20041;DHT22;10181;48.072;9.884;2024-02-26T10:18:52;8.90;99.90
20041;DHT22;10181;48.072;9.884;2024-02-26T10:21:22;9.00;99.90
20041;DHT22;10181;48.072;9.884;2024-02-26T10:23:48;9.10;99.90
20041;DHT22;10181;48.072;9.884;2024-02-26T10:26:15;9.30;99.90
20041;DHT22;10181;48.072;9.884;2024-02-26T10:28:45;9.40;99.90
20041;DHT22;10181;48.072;9.884;2024-02-26T10:31:11;9.50;99.90
20041;DHT22;10181;48.072;9.884;2024-02-26T10:33:39;9.70;99.90
20041;DHT22;10181;48.072;9.884;2024-02-26T10:36:07;9.80;99.90
20041;DHT22;10181;48.072;9.884;2024-02-26T10:38:34;9.90;99.90
20041;DHT22;10181;48.072;9.884;2024-02-26T10:41:01;10.00;99.90
20041;DHT22;10181;48.072;9.884;2024-02-26T10:43:27;10.10;99.90
20041;DHT22;10181;48.072;9.884;2024-02-26T10:45:55;10.20;99.90
20041;DHT22;10181;48.072;9.884;2024-02-26T10:48:21;10.20;99.90
20041;DHT22;10181;48.072;9.884;2024-02-26T10:50:47;10.20;99.90
20041;DHT22;10181;48.072;9.884;2024-02-26T10:53:21;10.30;99.90
20041;DHT22;10181;48.072;9.884;2024-02-26T10:56:17;10.30;99.90
20041;DHT22;10181;48.072;9.884;2024-02-26T10:58:45;10.30;99.90
20041;DHT22;10181;48.072;9.884;2024-02-26T11:01:12;10.20;99.90
20041;DHT22;10181;48.072;9.884;2024-02-26T11:03:38;10.20;99.90
20041;DHT22;10181;48.072;9.884;2024-02-26T11:06:05;10.20;99.90
20041;DHT22;10181;48.072;9.884;2024-02-26T11:08:31;10.20;99.90
20041;DHT22;10181;48.072;9.884;2024-02-26T11:10:58;10.20;99.90
20041;DHT22;10181;48.072;9.884;2024-02-26T11:13:28;10.20;99.90
20041;DHT22;10181;48.072;9.884;2024-02-26T11:15:56;10.20;99.90
20041;DHT22;10181;48.072;9.884;2024-02-26T11:18:23;10.10;99.90
20041;DHT22;10181;48.072;9.884;2024-02-26T11:20:49;10.10;99.90
20041;DHT22;10181;48.072;9.884;2024-02-26T11:23:16;10.10;99.90
20041;DHT22;10181;48.072;9.884;2024-02-26T11:25:42;10.20;99.90
20041;DHT22;10181;48.072;9.884;2024-02-26T11:28:14;10.20;99.90
20041;DHT22;10181;48.072;9.884;2024-02-26T11:30:46;10.20;99.90
20041;DHT22;10181;48.072;9.884;2024-02-26T11:33:14;10.40;99.90
20041;DHT22;10181;48.072;9.884;2024-02-26T11:35:40;10.40;99.90
20041;DHT22;10181;48.072;9.884;2024-02-26T11:38:06;10.40;99.90
20041;DHT22;10181;48.072;9.884;2024-02-26T11:40:33;10.40;99.90
20041;DHT22;10181;48.072;9.884;2024-02-26T11:42:59;10.50;99.90
20041;DHT22;10181;48.072;9.884;2024-02-26T11:48:14;10.50;99.90
20041;DHT22;10181;48.072;9.884;2024-02-26T11:50:50;10.50;99.90
20041;DHT22;10181;48.072;9.884;2024-02-26T11:53:25;10.50;99.90
20041;DHT22;10181;48.072;9.884;2024-02-26T11:58:42;10.40;99.90
20041;DHT22;10181;48.072;9.884;2024-02-26T12:01:37;10.40;99.90
20041;DHT22;10181;48.072;9.884;2024-02-26T12:04:05;10.30;99.90
20041;DHT22;10181;48.072;9.884;2024-02-26T12:06:30;10.30;99.90
20041;DHT22;10181;48.072;9.884;2024-02-26T12:08:56;10.40;99.90
20041;DHT22;10181;48.072;9.884;2024-02-26T12:11:22;10.30;99.90
20041;DHT22;10181;48.072;9.884;2024-02-26T12:13:48;10.40;99.90
20041;DHT22;10181;48.072;9.884;2024-02-26T12:16:37;10.40;99.90
20041;DHT22;10181;48.072;9.884;2024-02-26T12:19:08;10.30;99.90
20041;DHT22;10181;48.072;9.884;2024-02-26T12:21:35;10.40;99.90
20041;DHT22;10181;48.072;9.884;2024-02-26T12:24:14;10.40;99.90
20041;DHT22;10181;48.072;9.884;2024-02-26T12:26:41;10.30;99.90
20041;DHT22;10181;48.072;9.884;2024-02-26T12:29:08;10.20;99.90
20041;DHT22;10181;48.072;9.884;2024-02-26T12:31:35;10.20;99.90
20041;DHT22;10181;48.072;9.884;2024-02-26T12:34:03;10.20;99.90
20041;DHT22;10181;48.072;9.884;2024-02-26T12:36:30;10.20;99.90
20041;DHT22;10181;48.072;9.884;2024-02-26T12:38:56;10.20;99.90
20041;DHT22;10181;48.072;9.884;2024-02-26T12:41:22;10.10;99.90
20041;DHT22;10181;48.072;9.884;2024-02-26T12:43:48;10.10;99.90
20041;DHT22;10181;48.072;9.884;2024-02-26T12:46:14;10.00;99.90
20041;DHT22;10181;48.072;9.884;2024-02-26T12:48:44;10.00;99.90
20041;DHT22;10181;48.072;9.884;2024-02-26T12:51:14;9.90;99.90
20041;DHT22;10181;48.072;9.884;2024-02-26T12:53:41;10.00;99.90
20041;DHT22;10181;48.072;9.884;2024-02-26T12:56:08;9.90;99.90
20041;DHT22;10181;48.072;9.884;2024-02-26T12:58:35;9.90;99.90
20041;DHT22;10181;48.072;9.884;2024-02-26T13:01:03;9.90;99.90
20041;DHT22;10181;48.072;9.884;2024-02-26T13:03:30;9.90;99.90
20041;DHT22;10181;48.072;9.884;2024-02-26T13:05:55;9.90;99.90
20041;DHT22;10181;48.072;9.884;2024-02-26T13:08:21;9.90;99.90
20041;DHT22;10181;48.072;9.884;2024-02-26T13:10:47;10.00;99.90
20041;DHT22;10181;48.072;9.884;2024-02-26T13:13:16;10.10;99.90
20041;DHT22;10181;48.072;9.884;2024-02-26T13:15:43;10.10;99.90
20041;DHT22;10181;48.072;9.884;2024-02-26T13:18:10;10.20;99.90
20041;DHT22;10181;48.072;9.884;2024-02-26T13:20:35;10.20;99.90
20041;DHT22;10181;48.072;9.884;2024-02-26T13:23:06;10.30;99.90
20041;DHT22;10181;48.072;9.884;2024-02-26T13:25:32;10.30;99.90
20041;DHT22;10181;48.072;9.884;2024-02-26T13:28:24;10.40;99.90
20041;DHT22;10181;48.072;9.884;2024-02-26T13:30:56;10.60;99.90
20041;DHT22;10181;48.072;9.884;2024-02-26T13:33:26;10.70;99.90
20041;DHT22;10181;48.072;9.884;2024-02-26T13:35:52;10.80;99.90
20041;DHT22;10181;48.072;9.884;2024-02-26T13:38:18;10.90;99.90
20041;DHT22;10181;48.072;9.884;2024-02-26T13:40:44;11.00;99.90
20041;DHT22;10181;48.072;9.884;2024-02-26T13:43:09;11.00;99.90
20041;DHT22;10181;48.072;9.884;2024-02-26T13:45:36;11.10;99.90
20041;DHT22;10181;48.072;9.884;2024-02-26T13:48:04;11.10;99.90
20041;DHT22;10181;48.072;9.884;2024-02-26T13:50:30;11.10;99.90
20041;DHT22;10181;48.072;9.884;2024-02-26T13:52:56;11.20;99.90
20041;DHT22;10181;48.072;9.884;2024-02-26T13:55:23;11.20;99.90
20041;DHT22;10181;48.072;9.884;2024-02-26T13:57:52;11.10;99.90
20041;DHT22;10181;48.072;9.884;2024-02-26T14:00:19;11.20;99.90
20041;DHT22;10181;48.072;9.884;2024-02-26T14:02:44;11.10;99.90
20041;DHT22;10181;48.072;9.884;2024-02-26T14:05:10;11.20;99.90
20041;DHT22;10181;48.072;9.884;2024-02-26T14:07:36;11.20;99.90
20041;DHT22;10181;48.072;9.884;2024-02-26T14:10:02;11.10;99.90
20041;DHT22;10181;48.072;9.884;2024-02-26T14:12:27;11.00;99.90
20041;DHT22;10181;48.072;9.884;2024-02-26T14:14:54;10.90;99.90
20041;DHT22;10181;48.072;9.884;2024-02-26T14:17:21;10.90;99.90
20041;DHT22;10181;48.072;9.884;2024-02-26T14:19:47;10.90;99.90
20041;DHT22;10181;48.072;9.884;2024-02-26T14:22:14;10.80;99.90
20041;DHT22;10181;48.072;9.884;2024-02-26T14:24:40;10.80;99.90
20041;DHT22;10181;48.072;9.884;2024-02-26T14:27:08;10.80;99.90
20041;DHT22;10181;48.072;9.884;2024-02-26T14:29:34;10.70;99.90
20041;DHT22;10181;48.072;9.884;2024-02-26T14:32:00;10.80;99.90
20041;DHT22;10181;48.072;9.884;2024-02-26T14:34:27;10.80;99.90
20041;DHT22;10181;48.072;9.884;2024-02-26T14:36:52;10.80;99.90
20041;DHT22;10181;48.072;9.884;2024-02-26T14:39:18;10.80;99.90
20041;DHT22;10181;48.072;9.884;2024-02-26T14:41:44;10.80;99.90
20041;DHT22;10181;48.072;9.884;2024-02-26T14:44:09;10.80;99.90
20041;DHT22;10181;48.072;9.884;2024-02-26T14:46:36;10.70;99.90
20041;DHT22;10181;48.072;9.884;2024-02-26T14:49:02;10.70;99.90
20041;DHT22;10181;48.072;9.884;2024-02-26T14:51:27;10.70;99.90
20041;DHT22;10181;48.072;9.884;2024-02-26T14:53:53;10.70;99.90
20041;DHT22;10181;48.072;9.884;2024-02-26T14:56:18;10.70;99.90
20041;DHT22;10181;48.072;9.884;2024-02-26T14:58:44;10.60;99.90
20041;DHT22;10181;48.072;9.884;2024-02-26T15:01:11;10.70;99.90
20041;DHT22;10181;48.072;9.884;2024-02-26T15:03:37;10.60;99.90
20041;DHT22;10181;48.072;9.884;2024-02-26T15:06:04;10.60;99.90
20041;DHT22;10181;48.072;9.884;2024-02-26T15:08:31;10.50;99.90
20041;DHT22;10181;48.072;9.884;2024-02-26T15:10:56;10.50;99.90
20041;DHT22;10181;48.072;9.884;2024-02-26T15:13:22;10.50;99.90
20041;DHT22;10181;48.072;9.884;2024-02-26T15:15:47;10.50;99.90
20041;DHT22;10181;48.072;9.884;2024-02-26T15:18:13;10.40;99.90
20041;DHT22;10181;48.072;9.884;2024-02-26T15:20:42;10.30;99.90
20041;DHT22;10181;48.072;9.884;2024-02-26T15:23:13;10.30;99.90
20041;DHT22;10181;48.072;9.884;2024-02-26T15:25:39;10.30;99.90
20041;DHT22;10181;48.072;9.884;2024-02-26T15:28:07;10.20;99.90
20041;DHT22;10181;48.072;9.884;2024-02-26T15:30:32;10.20;99.90
20041;DHT22;10181;48.072;9.884;2024-02-26T15:32:59;10.10;99.90
20041;DHT22;10181;48.072;9.884;2024-02-26T15:35:25;10.10;99.90
20041;DHT22;10181;48.072;9.884;2024-02-26T15:37:51;10.00;99.90
20041;DHT22;10181;48.072;9.884;2024-02-26T15:40:17;10.00;99.90
20041;DHT22;10181;48.072;9.884;2024-02-26T15:42:43;9.90;99.90
20041;DHT22;10181;48.072;9.884;2024-02-26T15:45:09;9.90;99.90